sensor_id;sensor_type;location;lat;lon;timestamp;temperature;humidity
32614;DHT22;19031;51.400;6.770;2023-02-15T00:00:09;1.70;99.90
32614;DHT22;19031;51.400;6.770;2023-02-15T00:02:38;1.70;99.90
32614;DHT22;19031;51.400;6.770;2023-02-15T00:05:04;1.60;99.90
32614;DHT22;19031;51.400;6.770;2023-02-15T00:07:30;1.60;99.90
32614;DHT22;19031;51.400;6.770;2023-02-15T00:09:55;1.60;99.90
32614;DHT22;19031;51.400;6.770;2023-02-15T00:12:21;1.50;99.90
32614;DHT22;19031;51.400;6.770;2023-02-15T00:14:47;1.50;99.90
32614;DHT22;19031;51.400;6.770;2023-02-15T00:17:13;1.50;99.90
32614;DHT22;19031;51.400;6.770;2023-02-15T00:19:38;1.40;99.90
32614;DHT22;19031;51.400;6.770;2023-02-15T00:22:05;1.40;99.90
32614;DHT22;19031;51.400;6.770;2023-02-15T00:24:31;1.50;99.90
32614;DHT22;19031;51.400;6.770;2023-02-15T00:26:57;1.40;99.90
32614;DHT22;19031;51.400;6.770;2023-02-15T00:29:23;1.40;99.90
32614;DHT22;19031;51.400;6.770;2023-02-15T00:31:49;1.50;99.90
32614;DHT22;19031;51.400;6.770;2023-02-15T00:34:21;1.50;99.90
32614;DHT22;19031;51.400;6.770;2023-02-15T00:36:47;1.40;99.90
32614;DHT22;19031;51.400;6.770;2023-02-15T00:39:13;1.40;99.90
32614;DHT22;19031;51.400;6.770;2023-02-15T00:41:39;1.40;99.90
32614;DHT22;19031;51.400;6.770;2023-02-15T00:44:04;1.40;99.90
32614;DHT22;19031;51.400;6.770;2023-02-15T00:46:30;1.40;99.90
32614;DHT22;19031;51.400;6.770;2023-02-15T00:48:56;1.30;99.90
32614;DHT22;19031;51.400;6.770;2023-02-15T00:51:22;1.30;99.90
32614;DHT22;19031;51.400;6.770;2023-02-15T00:53:48;1.30;99.90
32614;DHT22;19031;51.400;6.770;2023-02-15T00:56:14;1.40;99.90
32614;DHT22;19031;51.400;6.770;2023-02-15T00:58:40;1.40;99.90
32614;DHT22;19031;51.400;6.770;2023-02-15T01:01:08;1.40;99.90
32614;DHT22;19031;51.400;6.770;2023-02-15T01:03:34;1.40;99.90
32614;DHT22;19031;51.400;6.770;2023-02-15T01:06:00;1.40;99.90
32614;DHT22;19031;51.400;6.770;2023-02-15T01:08:26;1.40;99.90
32614;DHT22;19031;51.400;6.770;2023-02-15T01:10:52;1.30;99.90
32614;DHT22;19031;51.400;6.770;2023-02-15T01:13:18;1.30;99.90
32614;DHT22;19031;51.400;6.770;2023-02-15T01:15:44;1.30;99.90
32614;DHT22;19031;51.400;6.770;2023-02-15T01:18:10;1.30;99.90
32614;DHT22;19031;51.400;6.770;2023-02-15T01:20:37;1.40;99.90
32614;DHT22;19031;51.400;6.770;2023-02-15T01:23:04;1.20;99.90
32614;DHT22;19031;51.400;6.770;2023-02-15T01:25:30;1.30;99.90
32614;DHT22;19031;51.400;6.770;2023-02-15T01:27:56;1.30;99.90
32614;DHT22;19031;51.400;6.770;2023-02-15T01:30:21;1.30;99.90
32614;DHT22;19031;51.400;6.770;2023-02-15T01:32:47;1.20;99.90
32614;DHT22;19031;51.400;6.770;2023-02-15T01:35:12;1.30;99.90
32614;DHT22;19031;51.400;6.770;2023-02-15T01:37:38;1.20;99.90
32614;DHT22;19031;51.400;6.770;2023-02-15T01:40:06;1.30;99.90
32614;DHT22;19031;51.400;6.770;2023-02-15T01:42:32;1.20;99.90
32614;DHT22;19031;51.400;6.770;2023-02-15T01:45:00;1.20;99.90
32614;DHT22;19031;51.400;6.770;2023-02-15T01:47:40;1.10;99.90
32614;DHT22;19031;51.400;6.770;2023-02-15T01:52:38;1.10;99.90
32614;DHT22;19031;51.400;6.770;2023-02-15T01:55:04;1.10;99.90
32614;DHT22;19031;51.400;6.770;2023-02-15T01:57:30;1.10;99.90
32614;DHT22;19031;51.400;6.770;2023-02-15T01:59:58;1.00;99.90
32614;DHT22;19031;51.400;6.770;2023-02-15T02:02:25;1.10;99.90
32614;DHT22;19031;51.400;6.770;2023-02-15T02:04:53;1.20;99.90
32614;DHT22;19031;51.400;6.770;2023-02-15T02:07:23;1.00;99.90
32614;DHT22;19031;51.400;6.770;2023-02-15T02:09:49;1.00;99.90
32614;DHT22;19031;51.400;6.770;2023-02-15T02:12:17;0.90;99.90
32614;DHT22;19031;51.400;6.770;2023-02-15T02:14:44;0.90;99.90
32614;DHT22;19031;51.400;6.770;2023-02-15T02:17:21;0.80;99.90
32614;DHT22;19031;51.400;6.770;2023-02-15T02:20:15;0.90;99.90
32614;DHT22;19031;51.400;6.770;2023-02-15T02:25:40;0.90;99.90
32614;DHT22;19031;51.400;6.770;2023-02-15T02:31:08;0.90;99.90
32614;DHT22;19031;51.400;6.770;2023-02-15T02:44:25;0.80;99.90
32614;DHT22;19031;51.400;6.770;2023-02-15T02:49:39;0.70;99.90
32614;DHT22;19031;51.400;6.770;2023-02-15T02:54:57;0.60;99.90
32614;DHT22;19031;51.400;6.770;2023-02-15T02:57:24;0.60;99.90
32614;DHT22;19031;51.400;6.770;2023-02-15T02:59:50;0.50;99.90
32614;DHT22;19031;51.400;6.770;2023-02-15T03:02:22;0.60;99.90
32614;DHT22;19031;51.400;6.770;2023-02-15T03:04:51;0.50;99.90
32614;DHT22;19031;51.400;6.770;2023-02-15T03:07:24;0.50;99.90
32614;DHT22;19031;51.400;6.770;2023-02-15T03:09:54;0.50;99.90
32614;DHT22;19031;51.400;6.770;2023-02-15T03:12:26;0.50;99.90
32614;DHT22;19031;51.400;6.770;2023-02-15T03:14:56;0.60;99.90
32614;DHT22;19031;51.400;6.770;2023-02-15T03:17:23;0.50;99.90
32614;DHT22;19031;51.400;6.770;2023-02-15T03:19:55;0.50;99.90
32614;DHT22;19031;51.400;6.770;2023-02-15T03:22:30;0.60;99.90
32614;DHT22;19031;51.400;6.770;2023-02-15T03:25:01;0.60;99.90
32614;DHT22;19031;51.400;6.770;2023-02-15T03:27:33;0.60;99.90
32614;DHT22;19031;51.400;6.770;2023-02-15T03:30:02;0.60;99.90
32614;DHT22;19031;51.400;6.770;2023-02-15T03:32:30;0.60;99.90
32614;DHT22;19031;51.400;6.770;2023-02-15T03:34:57;0.60;99.90
32614;DHT22;19031;51.400;6.770;2023-02-15T03:37:26;0.60;99.90
32614;DHT22;19031;51.400;6.770;2023-02-15T03:39:57;0.60;99.90
32614;DHT22;19031;51.400;6.770;2023-02-15T03:42:45;0.70;99.90
32614;DHT22;19031;51.400;6.770;2023-02-15T03:45:16;0.70;99.90
32614;DHT22;19031;51.400;6.770;2023-02-15T03:47:46;0.60;99.90
32614;DHT22;19031;51.400;6.770;2023-02-15T03:50:17;0.60;99.90
32614;DHT22;19031;51.400;6.770;2023-02-15T03:53:05;0.60;99.90
32614;DHT22;19031;51.400;6.770;2023-02-15T03:55:32;0.60;99.90
32614;DHT22;19031;51.400;6.770;2023-02-15T03:57:58;0.60;99.90
32614;DHT22;19031;51.400;6.770;2023-02-15T04:00:58;0.60;99.90
32614;DHT22;19031;51.400;6.770;2023-02-15T04:03:46;0.50;99.90
32614;DHT22;19031;51.400;6.770;2023-02-15T04:06:14;0.60;99.90
32614;DHT22;19031;51.400;6.770;2023-02-15T04:08:39;0.50;99.90
32614;DHT22;19031;51.400;6.770;2023-02-15T04:11:24;0.50;99.90
32614;DHT22;19031;51.400;6.770;2023-02-15T04:13:50;0.50;99.90
32614;DHT22;19031;51.400;6.770;2023-02-15T04:16:22;0.50;99.90
32614;DHT22;19031;51.400;6.770;2023-02-15T04:18:47;0.40;99.90
32614;DHT22;19031;51.400;6.770;2023-02-15T04:21:31;0.50;99.90
32614;DHT22;19031;51.400;6.770;2023-02-15T04:24:16;0.50;99.90
32614;DHT22;19031;51.400;6.770;2023-02-15T04:27:00;0.60;99.90
32614;DHT22;19031;51.400;6.770;2023-02-15T04:29:27;0.50;99.90
32614;DHT22;19031;51.400;6.770;2023-02-15T04:31:54;0.50;99.90
32614;DHT22;19031;51.400;6.770;2023-02-15T04:34:20;0.50;99.90
32614;DHT22;19031;51.400;6.770;2023-02-15T04:36:46;0.50;99.90
32614;DHT22;19031;51.400;6.770;2023-02-15T04:39:15;0.50;99.90
32614;DHT22;19031;51.400;6.770;2023-02-15T04:41:41;0.50;99.90
32614;DHT22;19031;51.400;6.770;2023-02-15T04:44:07;0.50;99.90
32614;DHT22;19031;51.400;6.770;2023-02-15T04:46:32;0.50;99.90
32614;DHT22;19031;51.400;6.770;2023-02-15T04:48:58;0.50;99.90
32614;DHT22;19031;51.400;6.770;2023-02-15T04:51:24;0.60;99.90
32614;DHT22;19031;51.400;6.770;2023-02-15T04:53:50;0.50;99.90
32614;DHT22;19031;51.400;6.770;2023-02-15T04:56:18;0.50;99.90
32614;DHT22;19031;51.400;6.770;2023-02-15T04:58:43;0.40;99.90
32614;DHT22;19031;51.400;6.770;2023-02-15T05:01:09;0.30;99.90
32614;DHT22;19031;51.400;6.770;2023-02-15T05:03:35;0.50;99.90
32614;DHT22;19031;51.400;6.770;2023-02-15T05:06:01;0.30;99.90
32614;DHT22;19031;51.400;6.770;2023-02-15T05:08:26;0.30;99.90
32614;DHT22;19031;51.400;6.770;2023-02-15T05:10:52;0.40;99.90
32614;DHT22;19031;51.400;6.770;2023-02-15T05:13:18;0.40;99.90
32614;DHT22;19031;51.400;6.770;2023-02-15T05:15:48;0.40;99.90
32614;DHT22;19031;51.400;6.770;2023-02-15T05:18:15;0.40;99.90
32614;DHT22;19031;51.400;6.770;2023-02-15T05:20:40;0.40;99.90
32614;DHT22;19031;51.400;6.770;2023-02-15T05:23:06;0.30;99.90
32614;DHT22;19031;51.400;6.770;2023-02-15T05:25:31;0.40;99.90
32614;DHT22;19031;51.400;6.770;2023-02-15T05:28:27;0.40;99.90
32614;DHT22;19031;51.400;6.770;2023-02-15T05:31:14;0.30;99.90
32614;DHT22;19031;51.400;6.770;2023-02-15T05:33:40;0.40;99.90
32614;DHT22;19031;51.400;6.770;2023-02-15T05:36:06;0.40;99.90
32614;DHT22;19031;51.400;6.770;2023-02-15T05:38:33;0.30;99.90
32614;DHT22;19031;51.400;6.770;2023-02-15T05:40:58;0.20;99.90
32614;DHT22;19031;51.400;6.770;2023-02-15T05:43:24;0.20;99.90
32614;DHT22;19031;51.400;6.770;2023-02-15T05:45:53;0.20;99.90
32614;DHT22;19031;51.400;6.770;2023-02-15T05:48:23;0.10;99.90
32614;DHT22;19031;51.400;6.770;2023-02-15T05:53:28;0.30;99.90
32614;DHT22;19031;51.400;6.770;2023-02-15T05:55:54;0.20;99.90
32614;DHT22;19031;51.400;6.770;2023-02-15T05:58:26;0.20;99.90
32614;DHT22;19031;51.400;6.770;2023-02-15T06:00:53;0.10;99.90
32614;DHT22;19031;51.400;6.770;2023-02-15T06:03:18;0.20;99.90
32614;DHT22;19031;51.400;6.770;2023-02-15T06:05:44;0.10;99.90
32614;DHT22;19031;51.400;6.770;2023-02-15T06:08:10;0.20;99.90
32614;DHT22;19031;51.400;6.770;2023-02-15T06:10:35;0.10;99.90
32614;DHT22;19031;51.400;6.770;2023-02-15T06:13:01;0.10;99.90
32614;DHT22;19031;51.400;6.770;2023-02-15T06:15:26;0.10;99.90
32614;DHT22;19031;51.400;6.770;2023-02-15T06:17:52;0.20;99.90
32614;DHT22;19031;51.400;6.770;2023-02-15T06:20:17;0.20;99.90
32614;DHT22;19031;51.400;6.770;2023-02-15T06:22:43;0.20;99.90
32614;DHT22;19031;51.400;6.770;2023-02-15T06:25:09;0.20;99.90
32614;DHT22;19031;51.400;6.770;2023-02-15T06:27:36;0.20;99.90
32614;DHT22;19031;51.400;6.770;2023-02-15T06:30:04;0.10;99.90
32614;DHT22;19031;51.400;6.770;2023-02-15T06:32:29;0.20;99.90
32614;DHT22;19031;51.400;6.770;2023-02-15T06:34:55;0.20;99.90
32614;DHT22;19031;51.400;6.770;2023-02-15T06:37:20;0.20;99.90
32614;DHT22;19031;51.400;6.770;2023-02-15T06:39:46;0.20;99.90
32614;DHT22;19031;51.400;6.770;2023-02-15T06:42:11;0.20;99.90
32614;DHT22;19031;51.400;6.770;2023-02-15T06:44:37;0.30;99.90
32614;DHT22;19031;51.400;6.770;2023-02-15T06:47:03;0.30;99.90
32614;DHT22;19031;51.400;6.770;2023-02-15T06:49:28;0.30;99.90
32614;DHT22;19031;51.400;6.770;2023-02-15T06:51:54;0.30;99.90
32614;DHT22;19031;51.400;6.770;2023-02-15T06:54:19;0.40;99.90
32614;DHT22;19031;51.400;6.770;2023-02-15T06:56:45;0.40;99.90
32614;DHT22;19031;51.400;6.770;2023-02-15T06:59:11;0.40;99.90
32614;DHT22;19031;51.400;6.770;2023-02-15T07:01:36;0.40;99.90
32614;DHT22;19031;51.400;6.770;2023-02-15T07:04:02;0.40;99.90
32614;DHT22;19031;51.400;6.770;2023-02-15T07:06:34;0.50;99.90
32614;DHT22;19031;51.400;6.770;2023-02-15T07:08:59;0.60;99.90
32614;DHT22;19031;51.400;6.770;2023-02-15T07:11:26;0.50;99.90
32614;DHT22;19031;51.400;6.770;2023-02-15T07:14:09;0.50;99.90
32614;DHT22;19031;51.400;6.770;2023-02-15T07:16:35;0.60;99.90
32614;DHT22;19031;51.400;6.770;2023-02-15T07:19:01;0.70;99.90
32614;DHT22;19031;51.400;6.770;2023-02-15T07:21:27;0.80;99.90
32614;DHT22;19031;51.400;6.770;2023-02-15T07:23:56;0.90;99.90
32614;DHT22;19031;51.400;6.770;2023-02-15T07:26:22;0.90;99.90
32614;DHT22;19031;51.400;6.770;2023-02-15T07:28:47;0.90;99.90
32614;DHT22;19031;51.400;6.770;2023-02-15T07:31:13;1.10;99.90
32614;DHT22;19031;51.400;6.770;2023-02-15T07:33:39;1.20;99.90
32614;DHT22;19031;51.400;6.770;2023-02-15T07:36:05;1.20;99.90
32614;DHT22;19031;51.400;6.770;2023-02-15T07:38:33;1.30;99.90
32614;DHT22;19031;51.400;6.770;2023-02-15T07:41:00;1.40;99.90
32614;DHT22;19031;51.400;6.770;2023-02-15T07:43:27;1.50;99.90
32614;DHT22;19031;51.400;6.770;2023-02-15T07:45:53;1.50;99.90
32614;DHT22;19031;51.400;6.770;2023-02-15T07:48:18;1.40;99.90
32614;DHT22;19031;51.400;6.770;2023-02-15T07:50:44;1.60;99.90
32614;DHT22;19031;51.400;6.770;2023-02-15T07:53:09;1.60;99.90
32614;DHT22;19031;51.400;6.770;2023-02-15T07:55:35;1.70;99.90
32614;DHT22;19031;51.400;6.770;2023-02-15T07:58:00;1.70;99.90
32614;DHT22;19031;51.400;6.770;2023-02-15T08:00:26;1.90;99.90
32614;DHT22;19031;51.400;6.770;2023-02-15T08:02:54;1.90;99.90
32614;DHT22;19031;51.400;6.770;2023-02-15T08:05:39;1.90;99.90
32614;DHT22;19031;51.400;6.770;2023-02-15T08:08:06;2.00;99.90
32614;DHT22;19031;51.400;6.770;2023-02-15T08:10:31;2.20;99.90
32614;DHT22;19031;51.400;6.770;2023-02-15T08:13:15;2.20;99.90
32614;DHT22;19031;51.400;6.770;2023-02-15T08:15:50;2.30;99.90
32614;DHT22;19031;51.400;6.770;2023-02-15T08:18:16;2.30;99.90
32614;DHT22;19031;51.400;6.770;2023-02-15T08:20:42;2.40;99.90
32614;DHT22;19031;51.400;6.770;2023-02-15T08:23:07;2.40;99.90
32614;DHT22;19031;51.400;6.770;2023-02-15T08:25:33;2.40;99.90
32614;DHT22;19031;51.400;6.770;2023-02-15T08:27:59;2.60;99.90
32614;DHT22;19031;51.400;6.770;2023-02-15T08:30:24;2.70;99.90
32614;DHT22;19031;51.400;6.770;2023-02-15T08:32:50;2.80;99.90
32614;DHT22;19031;51.400;6.770;2023-02-15T08:35:15;2.80;99.90
32614;DHT22;19031;51.400;6.770;2023-02-15T08:37:41;2.90;99.90
32614;DHT22;19031;51.400;6.770;2023-02-15T08:40:07;2.90;99.90
32614;DHT22;19031;51.400;6.770;2023-02-15T08:42:33;3.00;99.90
32614;DHT22;19031;51.400;6.770;2023-02-15T08:44:59;3.10;99.90
32614;DHT22;19031;51.400;6.770;2023-02-15T08:47:24;3.30;99.90
32614;DHT22;19031;51.400;6.770;2023-02-15T08:49:50;3.30;99.90
32614;DHT22;19031;51.400;6.770;2023-02-15T08:52:16;3.30;99.90
32614;DHT22;19031;51.400;6.770;2023-02-15T08:54:42;3.40;99.90
32614;DHT22;19031;51.400;6.770;2023-02-15T08:57:07;3.60;99.90
32614;DHT22;19031;51.400;6.770;2023-02-15T08:59:33;3.70;99.90
32614;DHT22;19031;51.400;6.770;2023-02-15T09:01:59;3.70;99.90
32614;DHT22;19031;51.400;6.770;2023-02-15T09:04:26;3.90;99.90
32614;DHT22;19031;51.400;6.770;2023-02-15T09:06:51;4.00;99.90
32614;DHT22;19031;51.400;6.770;2023-02-15T09:09:18;4.40;99.90
32614;DHT22;19031;51.400;6.770;2023-02-15T09:11:46;4.10;99.90
32614;DHT22;19031;51.400;6.770;2023-02-15T09:14:18;4.20;99.90
32614;DHT22;19031;51.400;6.770;2023-02-15T09:16:46;4.30;99.90
32614;DHT22;19031;51.400;6.770;2023-02-15T09:19:14;4.40;99.90
32614;DHT22;19031;51.400;6.770;2023-02-15T09:21:40;4.40;99.90
32614;DHT22;19031;51.400;6.770;2023-02-15T09:24:09;4.50;99.90
32614;DHT22;19031;51.400;6.770;2023-02-15T09:26:37;4.60;99.90
32614;DHT22;19031;51.400;6.770;2023-02-15T09:29:05;4.70;99.90
32614;DHT22;19031;51.400;6.770;2023-02-15T09:31:33;4.80;99.90
32614;DHT22;19031;51.400;6.770;2023-02-15T09:34:00;4.80;99.90
32614;DHT22;19031;51.400;6.770;2023-02-15T09:36:30;5.00;99.90
32614;DHT22;19031;51.400;6.770;2023-02-15T09:38:58;5.00;99.90
32614;DHT22;19031;51.400;6.770;2023-02-15T09:49:46;5.40;99.90
32614;DHT22;19031;51.400;6.770;2023-02-15T10:26:22;6.80;87.50
32614;DHT22;19031;51.400;6.770;2023-02-15T10:28:59;7.00;81.40
32614;DHT22;19031;51.400;6.770;2023-02-15T10:31:50;7.20;78.80
32614;DHT22;19031;51.400;6.770;2023-02-15T10:48:52;13.30;1.00
32614;DHT22;19031;51.400;6.770;2023-02-15T10:58:51;16.00;99.90
32614;DHT22;19031;51.400;6.770;2023-02-15T11:06:21;17.00;99.90
32614;DHT22;19031;51.400;6.770;2023-02-15T11:09:08;17.10;75.10
32614;DHT22;19031;51.400;6.770;2023-02-15T11:11:39;17.20;99.90
32614;DHT22;19031;51.400;6.770;2023-02-15T11:16:59;18.00;99.90
32614;DHT22;19031;51.400;6.770;2023-02-15T11:19:34;18.20;58.30
32614;DHT22;19031;51.400;6.770;2023-02-15T11:22:04;18.60;99.90
32614;DHT22;19031;51.400;6.770;2023-02-15T11:24:37;18.40;1.00
32614;DHT22;19031;51.400;6.770;2023-02-15T11:27:23;17.80;1.00
32614;DHT22;19031;51.400;6.770;2023-02-15T11:30:04;16.80;99.90
32614;DHT22;19031;51.400;6.770;2023-02-15T11:32:37;15.70;1.00
32614;DHT22;19031;51.400;6.770;2023-02-15T11:40:23;13.60;99.90
32614;DHT22;19031;51.400;6.770;2023-02-15T11:42:53;12.90;99.90
32614;DHT22;19031;51.400;6.770;2023-02-15T11:45:31;12.50;99.90
32614;DHT22;19031;51.400;6.770;2023-02-15T11:47:58;12.30;1.00
32614;DHT22;19031;51.400;6.770;2023-02-15T11:50:33;12.00;1.00
32614;DHT22;19031;51.400;6.770;2023-02-15T11:53:00;11.90;1.00
32614;DHT22;19031;51.400;6.770;2023-02-15T11:55:27;11.70;1.00
32614;DHT22;19031;51.400;6.770;2023-02-15T11:58:01;11.60;1.00
32614;DHT22;19031;51.400;6.770;2023-02-15T12:00:40;11.40;1.00
32614;DHT22;19031;51.400;6.770;2023-02-15T12:03:44;11.30;1.00
32614;DHT22;19031;51.400;6.770;2023-02-15T12:06:23;11.20;1.00
32614;DHT22;19031;51.400;6.770;2023-02-15T12:08:55;11.10;1.00
32614;DHT22;19031;51.400;6.770;2023-02-15T12:11:27;11.00;1.00
32614;DHT22;19031;51.400;6.770;2023-02-15T12:13:56;11.10;1.00
32614;DHT22;19031;51.400;6.770;2023-02-15T12:16:22;11.00;1.00
32614;DHT22;19031;51.400;6.770;2023-02-15T12:18:48;11.10;1.00
32614;DHT22;19031;51.400;6.770;2023-02-15T12:21:25;11.10;1.00
32614;DHT22;19031;51.400;6.770;2023-02-15T12:23:54;11.20;1.00
32614;DHT22;19031;51.400;6.770;2023-02-15T12:26:33;11.10;1.00
32614;DHT22;19031;51.400;6.770;2023-02-15T12:29:06;11.20;1.00
32614;DHT22;19031;51.400;6.770;2023-02-15T12:31:36;11.20;1.00
32614;DHT22;19031;51.400;6.770;2023-02-15T12:34:04;11.20;1.00
32614;DHT22;19031;51.400;6.770;2023-02-15T12:36:43;11.20;1.00
32614;DHT22;19031;51.400;6.770;2023-02-15T12:41:37;11.40;1.00
32614;DHT22;19031;51.400;6.770;2023-02-15T12:46:31;11.30;1.00
32614;DHT22;19031;51.400;6.770;2023-02-15T12:51:55;11.30;1.00
32614;DHT22;19031;51.400;6.770;2023-02-15T12:54:47;11.30;1.00
32614;DHT22;19031;51.400;6.770;2023-02-15T12:57:28;11.30;1.00
32614;DHT22;19031;51.400;6.770;2023-02-15T13:00:02;11.40;1.00
32614;DHT22;19031;51.400;6.770;2023-02-15T13:02:43;11.50;1.00
32614;DHT22;19031;51.400;6.770;2023-02-15T13:07:45;11.50;1.00
32614;DHT22;19031;51.400;6.770;2023-02-15T13:10:24;11.50;1.00
32614;DHT22;19031;51.400;6.770;2023-02-15T13:12:51;11.60;1.00
32614;DHT22;19031;51.400;6.770;2023-02-15T13:15:34;11.60;1.00
32614;DHT22;19031;51.400;6.770;2023-02-15T13:18:00;11.60;1.00
32614;DHT22;19031;51.400;6.770;2023-02-15T13:20:27;11.70;1.00
32614;DHT22;19031;51.400;6.770;2023-02-15T13:23:03;11.70;1.00
32614;DHT22;19031;51.400;6.770;2023-02-15T13:25:44;11.70;1.00
32614;DHT22;19031;51.400;6.770;2023-02-15T13:28:17;11.90;1.00
32614;DHT22;19031;51.400;6.770;2023-02-15T13:30:45;11.80;1.00
32614;DHT22;19031;51.400;6.770;2023-02-15T13:36:14;11.90;1.00
32614;DHT22;19031;51.400;6.770;2023-02-15T13:38:47;11.90;1.00
32614;DHT22;19031;51.400;6.770;2023-02-15T13:41:28;11.90;1.00
32614;DHT22;19031;51.400;6.770;2023-02-15T13:44:15;11.90;1.00
32614;DHT22;19031;51.400;6.770;2023-02-15T13:46:57;12.00;1.00
32614;DHT22;19031;51.400;6.770;2023-02-15T13:49:52;12.00;1.00
32614;DHT22;19031;51.400;6.770;2023-02-15T13:52:24;12.00;1.00
32614;DHT22;19031;51.400;6.770;2023-02-15T13:58:12;12.10;1.00
32614;DHT22;19031;51.400;6.770;2023-02-15T14:01:06;12.00;1.00
32614;DHT22;19031;51.400;6.770;2023-02-15T14:04:10;12.10;1.00
32614;DHT22;19031;51.400;6.770;2023-02-15T14:09:47;12.10;1.00
32614;DHT22;19031;51.400;6.770;2023-02-15T14:12:23;12.10;1.00
32614;DHT22;19031;51.400;6.770;2023-02-15T14:15:08;12.10;1.00
32614;DHT22;19031;51.400;6.770;2023-02-15T14:20:44;12.10;1.00
32614;DHT22;19031;51.400;6.770;2023-02-15T14:26:11;12.10;1.00
32614;DHT22;19031;51.400;6.770;2023-02-15T14:31:28;12.10;1.00
32614;DHT22;19031;51.400;6.770;2023-02-15T14:33:57;12.10;1.00
32614;DHT22;19031;51.400;6.770;2023-02-15T14:36:24;12.10;1.00
32614;DHT22;19031;51.400;6.770;2023-02-15T14:41:47;12.20;1.00
32614;DHT22;19031;51.400;6.770;2023-02-15T14:44:34;12.30;1.00
32614;DHT22;19031;51.400;6.770;2023-02-15T14:47:22;12.20;1.00
32614;DHT22;19031;51.400;6.770;2023-02-15T14:49:50;12.20;1.00
32614;DHT22;19031;51.400;6.770;2023-02-15T14:52:16;12.30;1.00
32614;DHT22;19031;51.400;6.770;2023-02-15T15:02:46;12.20;1.00
32614;DHT22;19031;51.400;6.770;2023-02-15T15:05:29;12.20;1.00
32614;DHT22;19031;51.400;6.770;2023-02-15T15:07:59;12.20;1.00
32614;DHT22;19031;51.400;6.770;2023-02-15T15:12:52;12.20;1.00
32614;DHT22;19031;51.400;6.770;2023-02-15T15:31:29;12.10;1.00
32614;DHT22;19031;51.400;6.770;2023-02-15T15:34:18;12.10;1.00
32614;DHT22;19031;51.400;6.770;2023-02-15T15:43:11;12.00;1.00
32614;DHT22;19031;51.400;6.770;2023-02-15T15:48:30;11.80;1.00
32614;DHT22;19031;51.400;6.770;2023-02-15T15:50:59;11.70;1.00
32614;DHT22;19031;51.400;6.770;2023-02-15T15:53:31;11.70;1.00
32614;DHT22;19031;51.400;6.770;2023-02-15T15:56:02;11.60;1.00
32614;DHT22;19031;51.400;6.770;2023-02-15T15:58:30;11.50;1.00
32614;DHT22;19031;51.400;6.770;2023-02-15T16:01:11;11.40;1.00
32614;DHT22;19031;51.400;6.770;2023-02-15T16:03:48;11.40;1.00
32614;DHT22;19031;51.400;6.770;2023-02-15T16:06:25;11.20;1.00
32614;DHT22;19031;51.400;6.770;2023-02-15T16:08:51;11.20;1.00
32614;DHT22;19031;51.400;6.770;2023-02-15T16:11:21;11.20;1.00
32614;DHT22;19031;51.400;6.770;2023-02-15T16:13:48;11.00;1.00
32614;DHT22;19031;51.400;6.770;2023-02-15T16:16:23;11.00;1.00
32614;DHT22;19031;51.400;6.770;2023-02-15T16:18:50;10.80;3.20
32614;DHT22;19031;51.400;6.770;2023-02-15T16:21:28;10.70;5.20
32614;DHT22;19031;51.400;6.770;2023-02-15T16:29:33;10.30;18.60
32614;DHT22;19031;51.400;6.770;2023-02-15T16:32:26;10.20;23.40
32614;DHT22;19031;51.400;6.770;2023-02-15T16:37:21;10.00;30.20
32614;DHT22;19031;51.400;6.770;2023-02-15T16:39:49;9.80;34.90
32614;DHT22;19031;51.400;6.770;2023-02-15T16:42:16;9.80;38.80
32614;DHT22;19031;51.400;6.770;2023-02-15T16:44:49;9.70;41.00
32614;DHT22;19031;51.400;6.770;2023-02-15T16:47:23;9.70;45.60
32614;DHT22;19031;51.400;6.770;2023-02-15T16:49:51;9.50;45.70
32614;DHT22;19031;51.400;6.770;2023-02-15T16:52:23;9.40;50.00
32614;DHT22;19031;51.400;6.770;2023-02-15T16:54:53;9.30;53.80
32614;DHT22;19031;51.400;6.770;2023-02-15T16:57:21;9.30;54.90
32614;DHT22;19031;51.400;6.770;2023-02-15T16:59:52;9.20;55.00
32614;DHT22;19031;51.400;6.770;2023-02-15T17:02:24;9.20;55.70
32614;DHT22;19031;51.400;6.770;2023-02-15T17:05:20;9.00;60.00
32614;DHT22;19031;51.400;6.770;2023-02-15T17:08:26;8.90;63.90
32614;DHT22;19031;51.400;6.770;2023-02-15T17:11:18;8.90;63.00
32614;DHT22;19031;51.400;6.770;2023-02-15T17:16:40;8.70;66.90
32614;DHT22;19031;51.400;6.770;2023-02-15T17:19:15;8.50;70.70
32614;DHT22;19031;51.400;6.770;2023-02-15T17:21:50;8.00;73.20
32614;DHT22;19031;51.400;6.770;2023-02-15T17:24:32;8.40;76.90
32614;DHT22;19031;51.400;6.770;2023-02-15T17:27:05;8.30;78.00
32614;DHT22;19031;51.400;6.770;2023-02-15T17:29:52;8.20;80.40
32614;DHT22;19031;51.400;6.770;2023-02-15T17:32:26;8.20;82.80
32614;DHT22;19031;51.400;6.770;2023-02-15T17:37:47;8.20;85.80
32614;DHT22;19031;51.400;6.770;2023-02-15T17:40:24;8.10;86.30
32614;DHT22;19031;51.400;6.770;2023-02-15T17:42:50;8.10;88.00
32614;DHT22;19031;51.400;6.770;2023-02-15T17:45:16;8.20;88.00
32614;DHT22;19031;51.400;6.770;2023-02-15T17:47:43;8.10;86.90
32614;DHT22;19031;51.400;6.770;2023-02-15T17:50:20;8.30;86.90
32614;DHT22;19031;51.400;6.770;2023-02-15T17:52:46;8.20;85.80
32614;DHT22;19031;51.400;6.770;2023-02-15T17:55:15;8.10;86.30
32614;DHT22;19031;51.400;6.770;2023-02-15T17:58:01;8.20;86.80
32614;DHT22;19031;51.400;6.770;2023-02-15T18:00:33;8.20;86.70
32614;DHT22;19031;51.400;6.770;2023-02-15T18:03:17;8.20;87.20
32614;DHT22;19031;51.400;6.770;2023-02-15T18:06:02;8.20;86.80
32614;DHT22;19031;51.400;6.770;2023-02-15T18:08:46;8.20;87.50
32614;DHT22;19031;51.400;6.770;2023-02-15T18:11:30;8.20;89.00
32614;DHT22;19031;51.400;6.770;2023-02-15T18:14:08;8.20;88.80
32614;DHT22;19031;51.400;6.770;2023-02-15T18:16:42;8.10;89.10
32614;DHT22;19031;51.400;6.770;2023-02-15T18:19:34;8.10;88.80
32614;DHT22;19031;51.400;6.770;2023-02-15T18:21:59;8.00;90.80
32614;DHT22;19031;51.400;6.770;2023-02-15T18:24:26;8.00;90.40
32614;DHT22;19031;51.400;6.770;2023-02-15T18:26:53;8.00;90.40
32614;DHT22;19031;51.400;6.770;2023-02-15T18:29:19;7.90;91.20
32614;DHT22;19031;51.400;6.770;2023-02-15T18:31:50;7.90;90.80
32614;DHT22;19031;51.400;6.770;2023-02-15T18:34:27;7.80;91.30
32614;DHT22;19031;51.400;6.770;2023-02-15T18:36:54;7.80;92.30
32614;DHT22;19031;51.400;6.770;2023-02-15T18:42:20;7.90;92.20
32614;DHT22;19031;51.400;6.770;2023-02-15T18:44:51;7.90;91.60
32614;DHT22;19031;51.400;6.770;2023-02-15T18:47:18;7.80;91.60
32614;DHT22;19031;51.400;6.770;2023-02-15T18:49:46;7.80;91.30
32614;DHT22;19031;51.400;6.770;2023-02-15T18:52:17;7.90;91.60
32614;DHT22;19031;51.400;6.770;2023-02-15T18:54:44;7.80;91.80
32614;DHT22;19031;51.400;6.770;2023-02-15T18:57:15;7.80;91.90
32614;DHT22;19031;51.400;6.770;2023-02-15T18:59:41;7.80;92.10
32614;DHT22;19031;51.400;6.770;2023-02-15T19:02:15;7.70;92.40
32614;DHT22;19031;51.400;6.770;2023-02-15T19:04:44;7.70;93.20
32614;DHT22;19031;51.400;6.770;2023-02-15T19:07:25;7.50;93.20
32614;DHT22;19031;51.400;6.770;2023-02-15T19:09:55;7.50;94.00
32614;DHT22;19031;51.400;6.770;2023-02-15T19:12:21;7.40;94.60
32614;DHT22;19031;51.400;6.770;2023-02-15T19:14:50;7.50;94.60